首页
METAR-TAF:

METAR-TAF

机场 :

富納富提國際機場

富纳富提, 圖瓦盧

纬度: 08-31S, 经度: 179-13E, 海拔: 1米

当前天气观测

该预报发布于2小时和1分钟前的14:00 UTC
风速6节,风向北转东北
温度 27°C
湿度 89%
气压 1007 hPa
能见度10公里或以上
少量云层高于2100英尺
散云层高于31000英尺

METAR: NGFU 131400Z 02006KT 9999 FEW021 SCT310 27/25 Q1007

时间: 04:01 (16:01 UTC)

预报

该预报发布于4小时和45分钟前的11:16 UTC
预报有效从13日的 12点(UTC)到 14日的 12点(UTC)
风速7节,风向东转东北
能见度10公里或以上
散云层高于1800英尺
多云层高于10000英尺
几率 30% :
短暂存在
从 14日的 06点(UTC)到 14日的 12点(UTC)
能見度: 5000
多云层高于1500英尺
少量云层高于1700英尺, 积雨云.
雷暴, 雨

TAF: NGFU 131116Z 1312/1412 07007KT 9999 SCT018 BKN100 PROB30 TEMPO 1406/1412 5000 TSRA BKN015 FEW017CB

超过4000个机场的气象观测和天气预报(METAR&TAF报告)。

可查询的气象台以黄色和红色小点在地图上表示。

将鼠标移到小点上方,可查看气象台名称。

然后点击查看天气观测和预报。

如需切换地图:点击带黑十字的绿色按钮放大地图;点击带横线的绿色按钮缩小地图;或者点击绿色箭头查看邻近地区的地图。


METAR-TAF: